Time;durP1;ratioP1;P1;durP2;ratioP2;P2;SDS_P1;SDS_P2;PMS_P1;PMS_P2;Temp;Humidity;BMP_temperature;BMP_pressure;BME280_temperature;BME280_humidity;BME280_pressure;Samples;Min_cycle;Max_cycle;Signal;HPM_P1;HPM_P2
2022/06/17 00:00:21;;;;;;;;;10.75;9.50;;;;;-143.57;100.00;65101.44;5097019;27;45406;-45
2022/06/17 00:02:46;;;;;;;;;12.75;10.50;;;;;-143.57;100.00;65101.44;5096735;27;45402;-49
2022/06/17 00:05:12;;;;;;;;;10.75;10.25;;;;;-143.57;100.00;65101.44;5096936;27;45260;-46
2022/06/17 00:07:39;;;;;;;;;12.00;10.25;;;;;-143.57;100.00;65101.44;5097347;27;45402;-47
2022/06/17 00:10:10;;;;;;;;;10.00;10.00;;;;;-143.57;100.00;65101.44;5096842;27;46576;-48
2022/06/17 00:12:36;;;;;;;;;10.40;8.20;;;;;-143.57;100.00;65101.44;5096788;27;45300;-50
2022/06/17 00:15:13;;;;;;;;;9.00;9.00;;;;;-143.57;100.00;65101.44;5098771;27;45309;-46
2022/06/17 00:17:55;;;;;;;;;8.25;8.00;;;;;-143.57;100.00;65101.44;5100438;27;45360;-47
2022/06/17 00:20:24;;;;;;;;;8.75;8.75;;;;;-143.57;100.00;65101.44;5099451;27;46389;-50
2022/06/17 00:22:50;;;;;;;;;8.20;7.80;;;;;-143.57;100.00;65101.44;5098966;27;45411;-49
2022/06/17 00:25:24;;;;;;;;;10.00;8.50;;;;;-143.57;100.00;65101.44;5100537;27;45406;-46
2022/06/17 00:27:50;;;;;;;;;9.50;8.75;;;;;-143.57;100.00;65101.44;5100180;27;45453;-47
2022/06/17 00:30:18;;;;;;;;;9.25;8.75;;;;;-143.57;100.00;65101.44;5099567;27;45541;-46
2022/06/17 00:32:44;;;;;;;;;13.60;9.20;;;;;-143.57;100.00;65101.44;5100225;27;45271;-47
2022/06/17 00:35:11;;;;;;;;;11.00;10.00;;;;;-143.57;100.00;65101.44;5100119;27;45331;-46
2022/06/17 00:37:37;;;;;;;;;9.50;9.50;;;;;-143.57;100.00;65101.44;5100417;27;45446;-47
2022/06/17 00:40:11;;;;;;;;;10.50;10.50;;;;;-143.57;100.00;65101.44;5099568;27;46163;-45
2022/06/17 00:42:37;;;;;;;;;9.20;8.20;;;;;-143.57;100.00;65101.44;5099804;27;45335;-46
2022/06/17 00:45:12;;;;;;;;;11.75;9.25;;;;;-143.57;100.00;65101.44;5099839;27;45346;-50
2022/06/17 00:47:48;;;;;;;;;12.75;10.75;;;;;-143.57;100.00;65101.44;5100163;27;45247;-50
2022/06/17 00:50:23;;;;;;;;;8.00;8.00;;;;;-143.57;100.00;65101.44;5098205;27;45530;-46
2022/06/17 00:52:59;;;;;;;;;9.20;9.20;;;;;-143.57;100.00;65101.44;5098614;27;45453;-47
2022/06/17 00:55:46;;;;;;;;;10.50;10.50;;;;;-143.57;100.00;65101.44;5099900;27;45276;-49
2022/06/17 00:58:16;;;;;;;;;9.25;9.25;;;;;-143.57;100.00;65101.44;5100246;27;45338;-47
2022/06/17 01:00:43;;;;;;;;;15.00;11.50;;;;;-143.57;100.00;65101.44;5099599;27;46219;-51
2022/06/17 01:03:13;;;;;;;;;12.00;10.60;;;;;-143.57;100.00;65101.44;5099482;27;45422;-48
2022/06/17 01:05:53;;;;;;;;;10.00;8.60;;;;;-143.57;100.00;65101.44;5099761;27;45314;-46
2022/06/17 01:11:17;;;;;;;;;8.75;8.75;;;;;-143.57;100.00;65101.44;5098449;27;45337;-44
2022/06/17 01:13:46;;;;;;;;;12.50;10.25;;;;;-143.57;100.00;65101.44;5099270;27;45877;-49
2022/06/17 01:16:12;;;;;;;;;8.50;8.50;;;;;-143.57;100.00;65101.44;5099487;27;45346;-46
2022/06/17 01:18:43;;;;;;;;;10.50;10.50;;;;;-143.57;100.00;65101.44;5099869;27;45280;-47
2022/06/17 01:21:18;;;;;;;;;12.25;8.75;;;;;-143.57;100.00;65101.44;5099062;27;46162;-48
2022/06/17 01:23:43;;;;;;;;;13.25;9.75;;;;;-143.57;100.00;65101.44;5098976;27;45238;-48
2022/06/17 01:26:09;;;;;;;;;11.00;9.00;;;;;-143.57;100.00;65101.44;5099073;27;45229;-45
2022/06/17 01:28:35;;;;;;;;;9.50;9.50;;;;;-143.57;100.00;65101.44;5099559;27;45380;-50
2022/06/17 01:31:04;;;;;;;;;10.75;9.00;;;;;-143.57;100.00;65101.44;5098952;27;46112;-48
2022/06/17 01:33:34;;;;;;;;;11.50;9.75;;;;;-143.57;100.00;65101.44;5097951;27;45386;-45
2022/06/17 01:36:18;;;;;;;;;13.00;9.75;;;;;-143.57;100.00;65101.44;5099047;27;45241;-47
2022/06/17 01:38:48;;;;;;;;;10.00;10.00;;;;;-143.57;100.00;65101.44;5099459;27;45349;-48
2022/06/17 01:41:14;;;;;;;;;10.75;10.75;;;;;-143.57;100.00;65101.44;5099025;27;46156;-47
2022/06/17 01:43:50;;;;;;;;;12.00;12.00;;;;;-143.57;100.00;65101.44;5098904;27;45452;-49
2022/06/17 01:46:25;;;;;;;;;13.50;10.50;;;;;-143.57;100.00;65101.44;5098735;27;45525;-48
2022/06/17 01:48:58;;;;;;;;;10.50;10.50;;;;;-143.57;100.00;65101.44;5099152;27;45504;-49
2022/06/17 01:51:26;;;;;;;;;12.00;7.75;;;;;-143.57;100.00;65101.44;5097816;27;47123;-50
2022/06/17 01:53:56;;;;;;;;;12.75;12.75;;;;;-143.57;100.00;65101.44;5099289;27;45478;-47
2022/06/17 01:56:27;;;;;;;;;12.75;10.50;;;;;-143.57;100.00;65101.44;5099026;27;45358;-46
2022/06/17 01:59:01;;;;;;;;;12.50;11.00;;;;;-143.57;100.00;65101.44;5099249;27;45400;-49
2022/06/17 02:01:30;;;;;;;;;8.75;8.75;;;;;-143.57;100.00;65101.44;5098565;27;46033;-47
2022/06/17 02:04:04;;;;;;;;;13.25;10.50;;;;;-143.57;100.00;65101.44;5098724;27;45329;-47
2022/06/17 02:06:40;;;;;;;;;16.25;8.00;;;;;-143.57;100.00;65101.44;5098904;27;45244;-49
2022/06/17 02:09:05;;;;;;;;;12.25;12.25;;;;;-143.57;100.00;65101.44;5098988;27;45230;-48
2022/06/17 02:11:32;;;;;;;;;12.25;10.50;;;;;-143.57;100.00;65101.44;5098063;27;45356;-47
2022/06/17 02:13:58;;;;;;;;;11.50;11.50;;;;;-143.57;100.00;65101.44;5098550;27;45344;-46
2022/06/17 02:16:23;;;;;;;;;10.50;10.50;;;;;-143.57;100.00;65101.44;5098451;27;45368;-48
2022/06/17 02:18:49;;;;;;;;;13.00;10.25;;;;;-143.57;100.00;65101.44;5098583;27;45342;-46
2022/06/17 02:21:24;;;;;;;;;11.50;11.50;;;;;-143.57;100.00;65101.44;5098217;27;46127;-50
2022/06/17 02:23:50;;;;;;;;;10.00;10.00;;;;;-143.57;100.00;65101.44;5098417;27;45462;-49
2022/06/17 02:26:16;;;;;;;;;9.25;9.25;;;;;-143.57;100.00;65101.44;5098292;27;45390;-47
2022/06/17 02:28:44;;;;;;;;;13.75;11.50;;;;;-143.57;100.00;65101.44;5098762;27;45251;-48
2022/06/17 02:31:10;;;;;;;;;13.75;12.25;;;;;-143.57;100.00;65101.44;5097646;27;45504;-49
2022/06/17 02:33:37;;;;;;;;;13.25;12.00;;;;;-143.57;100.00;65101.44;5098089;27;45270;-48
2022/06/17 02:36:13;;;;;;;;;11.00;11.00;;;;;-143.57;100.00;65101.44;5098171;27;45294;-48
2022/06/17 02:38:39;;;;;;;;;11.25;9.75;;;;;-143.57;100.00;65101.44;5097657;27;45255;-48
2022/06/17 02:41:10;;;;;;;;;13.75;13.00;;;;;-143.57;100.00;65101.44;5097724;27;46294;-46
2022/06/17 02:43:42;;;;;;;;;15.00;13.50;;;;;-143.57;100.00;65101.44;5097981;27;45357;-46
2022/06/17 02:46:20;;;;;;;;;10.50;10.50;;;;;-143.57;100.00;65101.44;5098110;27;45434;-47
2022/06/17 02:48:53;;;;;;;;;14.50;11.25;;;;;-143.57;100.00;65101.44;5098287;27;45436;-44
2022/06/17 02:51:18;;;;;;;;;10.25;10.25;;;;;-143.57;100.00;65101.44;5097538;27;46364;-47
2022/06/17 02:53:44;;;;;;;;;11.25;9.25;;;;;-143.57;100.00;65101.44;5097998;27;45377;-47
2022/06/17 02:56:17;;;;;;;;;14.50;14.00;;;;;-143.57;100.00;65101.44;5098057;27;45349;-46
2022/06/17 02:59:03;;;;;;;;;12.25;11.00;;;;;-143.57;100.00;65101.44;5098094;27;45475;-48
2022/06/17 03:01:34;;;;;;;;;13.75;10.50;;;;;-143.57;100.00;65101.44;5097271;27;46385;-47
2022/06/17 03:04:01;;;;;;;;;12.50;10.25;;;;;-143.57;100.00;65101.44;5097947;27;45329;-46
2022/06/17 03:06:36;;;;;;;;;9.75;9.00;;;;;-143.57;100.00;65101.44;5097512;27;45317;-45
2022/06/17 03:09:20;;;;;;;;;9.75;9.75;;;;;-143.57;100.00;65101.44;5097998;27;45361;-49
2022/06/17 03:11:51;;;;;;;;;11.25;10.00;;;;;-143.57;100.00;65101.44;5097329;27;46144;-45
2022/06/17 03:14:17;;;;;;;;;7.80;7.80;;;;;-143.57;100.00;65101.44;5097572;27;45391;-46
2022/06/17 03:16:44;;;;;;;;;10.25;10.25;;;;;-143.57;100.00;65101.44;5097174;27;45291;-45
2022/06/17 03:19:11;;;;;;;;;11.00;9.50;;;;;-143.57;100.00;65101.44;5097881;27;45524;-47
2022/06/17 03:21:36;;;;;;;;;10.75;10.75;;;;;-143.57;100.00;65101.44;5097258;27;45588;-59
2022/06/17 03:24:42;;;;;;;;;10.50;10.50;;;;;-143.57;100.00;65101.44;5097435;27;45389;-47
2022/06/17 03:27:15;;;;;;;;;12.50;12.25;;;;;-143.57;100.00;65101.44;5097701;27;45356;-51
2022/06/17 03:29:43;;;;;;;;;12.00;9.75;;;;;-143.57;100.00;65101.44;5097645;27;45464;-57
2022/06/17 03:32:21;;;;;;;;;12.75;11.25;;;;;-143.57;100.00;65101.44;5097378;27;46173;-57
2022/06/17 03:34:51;;;;;;;;;12.20;10.00;;;;;-143.57;100.00;65101.44;5097510;27;45325;-59
2022/06/17 03:37:26;;;;;;;;;12.75;11.75;;;;;-143.57;100.00;65101.44;5097476;27;45501;-54
2022/06/17 03:39:57;;;;;;;;;10.50;10.00;;;;;-143.57;100.00;65101.44;5097563;27;45443;-59
2022/06/17 03:42:33;;;;;;;;;11.00;11.00;;;;;-143.57;100.00;65101.44;5097103;27;45335;-52
2022/06/17 03:45:05;;;;;;;;;12.00;9.00;;;;;-143.57;100.00;65101.44;5097245;27;45302;-54
2022/06/17 03:47:33;;;;;;;;;10.00;10.00;;;;;-143.57;100.00;65101.44;5097218;27;45477;-60
2022/06/17 03:50:05;;;;;;;;;11.25;11.25;;;;;-143.57;100.00;65101.44;5101172;27;45314;-59
2022/06/17 03:52:43;;;;;;;;;9.00;9.00;;;;;-143.57;100.00;65101.44;5100658;27;45313;-52
2022/06/17 03:55:14;;;;;;;;;9.25;9.25;;;;;-143.57;100.00;65101.44;5100778;27;45404;-59
2022/06/17 03:57:43;;;;;;;;;13.50;11.50;;;;;-143.57;100.00;65101.44;5100725;27;45326;-59
2022/06/17 04:00:25;;;;;;;;;10.50;10.50;;;;;-143.57;100.00;65101.44;5101176;27;45302;-57
2022/06/17 04:02:52;;;;;;;;;13.00;12.00;;;;;-143.57;100.00;65101.44;5100416;27;45685;-56
2022/06/17 04:05:20;;;;;;;;;11.25;9.75;;;;;-143.57;100.00;65101.44;5100413;27;45378;-59
2022/06/17 04:07:46;;;;;;;;;10.50;10.50;;;;;-143.57;100.00;65101.44;5100394;27;45355;-54
2022/06/17 04:10:17;;;;;;;;;9.00;9.00;;;;;-143.57;100.00;65101.44;5100612;27;45379;-57
2022/06/17 04:12:47;;;;;;;;;10.75;10.25;;;;;-143.57;100.00;65101.44;5100141;27;45368;-56
2022/06/17 04:15:39;;;;;;;;;11.50;11.50;;;;;-143.57;100.00;65101.44;5100170;27;45267;-56
2022/06/17 04:18:05;;;;;;;;;11.50;9.50;;;;;-143.57;100.00;65101.44;5100331;27;45411;-53
2022/06/17 04:20:48;;;;;;;;;10.75;9.75;;;;;-143.57;100.00;65101.44;5100300;27;45357;-58
2022/06/17 04:23:19;;;;;;;;;9.75;9.75;;;;;-143.57;100.00;65101.44;5100015;27;45400;-53
2022/06/17 04:25:54;;;;;;;;;9.25;8.75;;;;;-143.57;100.00;65101.44;5100217;27;45381;-54
2022/06/17 04:28:26;;;;;;;;;12.00;9.50;;;;;-143.57;100.00;65101.44;5100575;27;45654;-56
2022/06/17 04:31:06;;;;;;;;;14.00;10.00;;;;;-143.57;100.00;65101.44;5100710;27;45347;-55
2022/06/17 04:33:50;;;;;;;;;12.75;11.50;;;;;-143.57;100.00;65101.44;5100222;27;47215;-55
2022/06/17 04:36:26;;;;;;;;;13.00;9.25;;;;;-143.57;100.00;65101.44;5099944;27;45364;-55
2022/06/17 04:39:01;;;;;;;;;13.75;10.50;;;;;-143.57;100.00;65101.44;5099997;27;45427;-57
2022/06/17 04:41:35;;;;;;;;;11.50;11.50;;;;;-143.57;100.00;65101.44;5100515;27;45298;-52
2022/06/17 04:44:04;;;;;;;;;11.50;10.00;;;;;-143.57;100.00;65101.44;5099990;27;46017;-56
2022/06/17 04:46:38;;;;;;;;;12.00;9.25;;;;;-143.57;100.00;65101.44;5099451;27;45506;-53
2022/06/17 04:49:04;;;;;;;;;10.75;10.75;;;;;-143.57;100.00;65101.44;5099705;27;45318;-53
2022/06/17 04:51:33;;;;;;;;;17.50;12.25;;;;;-143.57;100.00;65101.44;5100007;27;45547;-56
2022/06/17 04:53:59;;;;;;;;;11.75;10.75;;;;;-143.57;100.00;65101.44;5099484;27;45399;-57
2022/06/17 04:56:39;;;;;;;;;11.50;10.00;;;;;-143.57;100.00;65101.44;5099358;27;45243;-59
2022/06/17 04:59:37;;;;;;;;;9.50;9.50;;;;;-143.57;100.00;65101.44;5099466;27;45438;-53
2022/06/17 05:02:06;;;;;;;;;12.25;12.25;;;;;-143.57;100.00;65101.44;5098927;27;45708;-54
2022/06/17 05:04:32;;;;;;;;;11.25;9.00;;;;;-143.57;100.00;65101.44;5099228;27;45458;-56
2022/06/17 05:06:58;;;;;;;;;11.00;10.25;;;;;-143.57;100.00;65101.44;5099064;27;45335;-57
2022/06/17 05:09:42;;;;;;;;;9.50;9.00;;;;;-143.57;100.00;65101.44;5099414;27;45496;-53
2022/06/17 05:12:17;;;;;;;;;14.50;11.50;;;;;-143.57;100.00;65101.44;5099758;27;45181;-45
2022/06/17 05:15:14;;;;;;;;;13.50;10.50;;;;;-143.57;100.00;65101.44;5099234;27;45278;-55
2022/06/17 05:17:39;;;;;;;;;14.50;11.00;;;;;-143.57;100.00;65101.44;5055951;28;45456;-54
2022/06/17 05:20:08;;;;;;;;;13.00;11.00;;;;;-143.57;100.00;65101.44;5056288;28;45451;-46
2022/06/17 05:22:38;;;;;;;;;11.25;9.50;;;;;-143.57;100.00;65101.44;5056190;28;45462;-47
2022/06/17 05:25:15;;;;;;;;;11.75;11.75;;;;;-143.57;100.00;65101.44;5056321;28;46388;-51
2022/06/17 05:27:41;;;;;;;;;9.50;9.00;;;;;-143.57;100.00;65101.44;5056154;28;45359;-53
2022/06/17 05:30:07;;;;;;;;;17.00;12.00;;;;;-143.57;100.00;65101.44;5055370;28;45423;-46
2022/06/17 05:32:32;;;;;;;;;9.75;9.25;;;;;-143.57;100.00;65101.44;5056057;28;45407;-49
2022/06/17 05:34:58;;;;;;;;;9.50;9.50;;;;;-143.57;100.00;65101.44;5055994;28;45496;-50
2022/06/17 05:37:24;;;;;;;;;8.00;7.25;;;;;-143.57;100.00;65101.44;5056320;28;45545;-57
2022/06/17 05:39:49;;;;;;;;;11.00;10.75;;;;;-143.57;100.00;65101.44;5055751;28;45282;-50
2022/06/17 05:42:15;;;;;;;;;12.50;11.75;;;;;-143.57;100.00;65101.44;5056352;28;45430;-49
2022/06/17 05:44:40;;;;;;;;;11.50;11.00;;;;;-143.57;100.00;65101.44;5056266;28;46366;-51
2022/06/17 05:47:06;;;;;;;;;10.75;9.00;;;;;-143.57;100.00;65101.44;5055925;28;45466;-53
2022/06/17 05:49:32;;;;;;;;;11.50;10.25;;;;;-143.57;100.00;65101.44;5055439;28;45439;-50
2022/06/17 05:51:58;;;;;;;;;12.50;11.00;;;;;-143.57;100.00;65101.44;5056207;28;45281;-60
2022/06/17 05:54:24;;;;;;;;;11.00;11.00;;;;;-143.57;100.00;65101.44;5056387;28;45436;-47
2022/06/17 05:56:49;;;;;;;;;9.75;9.75;;;;;-143.57;100.00;65101.44;5058135;28;45432;-51
2022/06/17 05:59:17;;;;;;;;;10.50;9.25;;;;;-143.57;100.00;65101.44;5058191;28;45306;-48
2022/06/17 06:01:43;;;;;;;;;10.33;8.33;;;;;-143.57;100.00;65101.44;5058138;28;45529;-53
2022/06/17 06:04:09;;;;;;;;;13.25;10.25;;;;;-143.57;100.00;65101.44;5057936;28;46227;-54
2022/06/17 06:06:34;;;;;;;;;11.00;11.00;;;;;-143.57;100.00;65101.44;5057769;28;45572;-57
2022/06/17 06:08:59;;;;;;;;;9.00;9.00;;;;;-143.57;100.00;65101.44;5058278;28;45296;-52
2022/06/17 06:11:25;;;;;;;;;11.75;11.00;;;;;-143.57;100.00;65101.44;5057435;28;45627;-54
2022/06/17 06:13:50;;;;;;;;;11.25;9.75;;;;;-143.57;100.00;65101.44;5057069;28;46152;-53
2022/06/17 06:16:16;;;;;;;;;12.00;9.75;;;;;-143.57;100.00;65101.44;5057847;28;45211;-52
2022/06/17 06:18:45;;;;;;;;;11.50;11.50;;;;;-143.57;100.00;65101.44;5057493;28;45430;-51
2022/06/17 06:21:11;;;;;;;;;7.00;7.00;;;;;-143.57;100.00;65101.44;5077528;27;45505;-51
2022/06/17 06:23:38;;;;;;;;;8.00;6.75;;;;;-143.57;100.00;65101.44;5098398;27;45469;-50
2022/06/17 06:26:07;;;;;;;;;12.75;9.75;;;;;-143.57;100.00;65101.44;5098437;27;45615;-57
2022/06/17 06:28:33;;;;;;;;;11.75;9.75;;;;;-143.57;100.00;65101.44;5098583;27;45165;-50
2022/06/17 06:31:06;;;;;;;;;8.00;8.00;;;;;-143.57;100.00;65101.44;5098687;27;45459;-49
2022/06/17 06:33:31;;;;;;;;;12.25;9.25;;;;;-143.57;100.00;65101.44;5098033;27;47594;-54
2022/06/17 06:35:57;;;;;;;;;14.25;10.00;;;;;-143.57;100.00;65101.44;5098470;27;45227;-53
2022/06/17 06:38:22;;;;;;;;;12.75;10.00;;;;;-143.57;100.00;65101.44;5098273;27;45514;-54
2022/06/17 06:40:48;;;;;;;;;10.75;8.75;;;;;-143.57;100.00;65101.44;5098564;27;45276;-52
2022/06/17 06:43:19;;;;;;;;;10.50;10.50;;;;;-143.57;100.00;65101.44;5098184;27;46130;-57
2022/06/17 06:45:47;;;;;;;;;11.40;11.40;;;;;-143.57;100.00;65101.44;5098291;27;45314;-55
2022/06/17 06:48:15;;;;;;;;;12.80;9.80;;;;;-143.57;100.00;65101.44;5098327;27;45564;-57
2022/06/17 06:50:42;;;;;;;;;9.00;9.00;;;;;-143.57;100.00;65101.44;5098504;27;45639;-49
2022/06/17 06:53:08;;;;;;;;;10.80;10.80;;;;;-143.57;100.00;65101.44;5097802;27;47192;-57
2022/06/17 06:55:34;;;;;;;;;14.60;11.60;;;;;-143.57;100.00;65101.44;5097962;27;45414;-56
2022/06/17 06:58:03;;;;;;;;;9.40;9.40;;;;;-143.57;100.00;65101.44;5098130;27;45468;-53
2022/06/17 07:00:35;;;;;;;;;9.00;8.00;;;;;-143.57;100.00;65101.44;5097979;27;45602;-51
2022/06/17 07:03:01;;;;;;;;;9.60;8.80;;;;;-143.57;100.00;65101.44;5097712;27;46947;-58
2022/06/17 07:05:26;;;;;;;;;10.50;9.00;;;;;-143.57;100.00;65101.44;5097845;27;45185;-50
2022/06/17 07:07:52;;;;;;;;;9.00;9.00;;;;;-143.57;100.00;65101.44;5097917;27;45434;-52
2022/06/17 07:10:22;;;;;;;;;10.25;10.25;;;;;-143.57;100.00;65101.44;5098278;27;45650;-56
2022/06/17 07:12:48;;;;;;;;;11.80;9.40;;;;;-143.57;100.00;65101.44;5097160;27;45433;-57
2022/06/17 07:15:15;;;;;;;;;8.75;7.75;;;;;-143.57;100.00;65101.44;5097738;27;45341;-54
2022/06/17 07:17:53;;;;;;;;;7.60;7.00;;;;;-143.57;100.00;65101.44;5097549;27;45260;-58
2022/06/17 07:20:18;;;;;;;;;8.60;7.80;;;;;-143.57;100.00;65101.44;5100364;27;45306;-55
2022/06/17 07:22:44;;;;;;;;;5.00;3.50;;;;;-143.57;100.00;65101.44;5117842;27;46187;-55
2022/06/17 07:25:09;;;;;;;;;11.00;9.75;;;;;-143.57;100.00;65101.44;5118169;27;45371;-57
2022/06/17 07:27:34;;;;;;;;;10.50;8.25;;;;;-143.57;100.00;65101.44;5118171;27;45370;-57
2022/06/17 07:30:00;;;;;;;;;12.75;11.25;;;;;-143.57;100.00;65101.44;5118366;27;45346;-57
2022/06/17 07:32:25;;;;;;;;;11.75;9.25;;;;;-143.57;100.00;65101.44;5117898;27;46151;-56
2022/06/17 07:34:51;;;;;;;;;12.75;9.25;;;;;-143.57;100.00;65101.44;5116993;27;45621;-57
2022/06/17 07:40:02;;;;;;;;;10.40;8.00;;;;;-143.57;100.00;65101.44;5118227;27;45373;-53
2022/06/17 07:42:37;;;;;;;;;11.20;9.40;;;;;-143.57;100.00;65101.44;5117614;27;46265;-55
2022/06/17 07:45:16;;;;;;;;;11.40;10.60;;;;;-143.57;100.00;65101.44;5117699;27;45512;-48
2022/06/17 07:47:42;;;;;;;;;10.20;9.20;;;;;-143.57;100.00;65101.44;5117872;27;45368;-56
2022/06/17 07:50:11;;;;;;;;;11.00;9.75;;;;;-143.57;100.00;65101.44;5117683;27;45320;-56
2022/06/17 07:52:37;;;;;;;;;8.20;8.20;;;;;-143.57;100.00;65101.44;5099002;27;47616;-46
2022/06/17 07:55:03;;;;;;;;;12.75;9.25;;;;;-143.57;100.00;65101.44;5117645;27;45421;-49
2022/06/17 07:57:29;;;;;;;;;14.00;11.00;;;;;-143.57;100.00;65101.44;5117666;27;45322;-49
2022/06/17 07:59:54;;;;;;;;;11.25;11.00;;;;;-143.57;100.00;65101.44;5118014;27;45350;-52
2022/06/17 08:02:19;;;;;;;;;10.50;10.50;;;;;-143.57;100.00;65101.44;5117557;27;46229;-50
2022/06/17 08:04:45;;;;;;;;;12.75;11.75;;;;;-143.57;100.00;65101.44;5117663;27;45299;-48
2022/06/17 08:07:11;;;;;;;;;11.25;11.25;;;;;-143.57;100.00;65101.44;5116612;27;45421;-47
2022/06/17 08:09:37;;;;;;;;;11.80;11.80;;;;;-143.57;100.00;65101.44;5117789;27;45451;-48
2022/06/17 08:12:07;;;;;;;;;12.20;10.60;;;;;-143.57;100.00;65101.44;5117519;27;46130;-47
2022/06/17 08:14:32;;;;;;;;;11.00;10.20;;;;;-143.57;100.00;65101.44;5117370;27;45464;-47
2022/06/17 08:16:57;;;;;;;;;13.25;10.75;;;;;-143.57;100.00;65101.44;5100839;27;45449;-46
2022/06/17 08:19:23;;;;;;;;;10.50;9.25;;;;;-143.57;100.00;65101.44;5097069;27;45291;-50
2022/06/17 08:21:48;;;;;;;;;12.00;10.25;;;;;-143.57;100.00;65101.44;5096380;27;45429;-49
2022/06/17 08:24:13;;;;;;;;;11.50;9.25;;;;;-143.57;100.00;65101.44;5096753;27;45425;-47
2022/06/17 08:26:39;;;;;;;;;9.75;9.00;;;;;-143.57;100.00;65101.44;5096970;27;45797;-49
2022/06/17 08:29:04;;;;;;;;;10.25;10.25;;;;;-143.57;100.00;65101.44;5097209;27;45338;-51
2022/06/17 08:31:30;;;;;;;;;8.50;8.50;;;;;-143.57;100.00;65101.44;5096733;27;45368;-50
2022/06/17 08:33:55;;;;;;;;;7.25;7.25;;;;;-143.57;100.00;65101.44;5096481;27;45298;-51
2022/06/17 08:36:26;;;;;;;;;10.75;10.00;;;;;-143.57;100.00;65101.44;5099129;27;45328;-49
2022/06/17 08:38:58;;;;;;;;;10.40;8.00;;;;;-143.57;100.00;65101.44;5100373;27;45480;-50
2022/06/17 08:41:38;;;;;;;;;10.60;9.00;;;;;-143.57;100.00;65101.44;5099871;27;45471;-55
2022/06/17 08:44:32;;;;;;;;;9.20;9.20;;;;;-143.57;100.00;65101.44;5099588;27;45389;-59
2022/06/17 08:47:25;;;;;;;;;8.60;8.60;;;;;-143.57;100.00;65101.44;5099715;27;45357;-46
2022/06/17 08:50:03;;;;;;;;;10.00;10.00;;;;;-143.57;100.00;65101.44;5099873;27;45408;-55
2022/06/17 08:52:37;;;;;;;;;7.60;7.60;;;;;-143.57;100.00;65101.44;5099619;27;45511;-59
2022/06/17 08:55:05;;;;;;;;;8.20;8.00;;;;;-143.57;100.00;65101.44;5098964;27;45465;-52
2022/06/17 08:58:07;;;;;;;;;8.60;7.20;;;;;-143.57;100.00;65101.44;5099539;27;45217;-59
2022/06/17 09:00:51;;;;;;;;;5.60;5.60;;;;;-143.57;100.00;65101.44;5100087;27;45337;-60
2022/06/17 09:03:26;;;;;;;;;7.00;7.00;;;;;-143.57;100.00;65101.44;5099508;27;45510;-54
2022/06/17 09:06:27;;;;;;;;;8.80;6.80;;;;;-143.57;100.00;65101.44;5099643;27;45358;-55
2022/06/17 09:09:29;;;;;;;;;7.40;7.40;;;;;-143.57;100.00;65101.44;5016857;28;45385;-59
2022/06/17 09:12:22;;;;;;;;;6.60;5.00;;;;;-143.57;100.00;65101.44;5017019;28;45501;-54
2022/06/17 09:15:22;;;;;;;;;7.00;7.00;;;;;-143.57;100.00;65101.44;5016475;28;46280;-57
2022/06/17 09:18:12;;;;;;;;;9.20;7.00;;;;;-143.57;100.00;65101.44;4976798;28;45510;-59
2022/06/17 09:20:41;;;;;;;;;6.60;6.40;;;;;-143.57;100.00;65101.44;4976725;28;45492;-58
2022/06/17 09:23:10;;;;;;;;;6.20;6.20;;;;;-143.57;100.00;65101.44;4977439;28;45367;-59
2022/06/17 09:25:42;;;;;;;;;8.60;7.20;;;;;-143.57;100.00;65101.44;4976627;28;46263;-59
2022/06/17 09:28:20;;;;;;;;;7.80;6.60;;;;;-143.57;100.00;65101.44;4976641;28;45339;-61
2022/06/17 09:30:53;;;;;;;;;7.00;6.60;;;;;-143.57;100.00;65101.44;4976837;28;45681;-58
2022/06/17 09:33:28;;;;;;;;;6.60;6.60;;;;;-143.57;100.00;65101.44;4977238;28;45868;-51
2022/06/17 09:36:04;;;;;;;;;7.20;7.20;;;;;-143.57;100.00;65101.44;4976550;28;46410;-51
2022/06/17 09:38:41;;;;;;;;;5.40;5.40;;;;;-143.57;100.00;65101.44;4976673;28;45495;-48
2022/06/17 09:41:13;;;;;;;;;10.00;7.40;;;;;-143.57;100.00;65101.44;4976795;28;45567;-55
2022/06/17 09:43:48;;;;;;;;;8.80;6.80;;;;;-143.57;100.00;65101.44;4976960;28;45268;-46
2022/06/17 09:46:25;;;;;;;;;9.60;8.00;;;;;-143.57;100.00;65101.44;5018480;28;46313;-48
2022/06/17 09:48:59;;;;;;;;;9.20;8.20;;;;;-143.57;100.00;65101.44;5035807;28;45487;-48
2022/06/17 09:51:42;;;;;;;;;8.00;7.20;;;;;-143.57;100.00;65101.44;5035746;28;45512;-46
2022/06/17 09:54:15;;;;;;;;;7.80;7.80;;;;;-143.57;100.00;65101.44;5065286;27;45337;-49
2022/06/17 09:57:16;;;;;;;;;8.80;7.40;;;;;-143.57;100.00;65101.44;5099038;27;45283;-51
2022/06/17 09:59:54;;;;;;;;;4.40;4.20;;;;;-143.57;100.00;65101.44;5015347;28;45364;-54
2022/06/17 10:02:21;;;;;;;;;6.60;6.60;;;;;-143.57;100.00;65101.44;5016128;28;45382;-59
2022/06/17 10:04:47;;;;;;;;;6.40;6.40;;;;;-143.57;100.00;65101.44;5015976;28;45507;-50
2022/06/17 10:07:24;;;;;;;;;5.50;4.75;;;;;-143.57;100.00;65101.44;5015468;28;46284;-50
2022/06/17 10:10:12;;;;;;;;;6.00;6.00;;;;;-143.57;100.00;65101.44;5016267;28;45321;-51
2022/06/17 10:13:15;;;;;;;;;6.80;6.80;;;;;-143.57;100.00;65101.44;5016207;28;45325;-50
2022/06/17 10:18:53;;;;;;;;;5.80;5.00;;;;;-143.57;100.00;65101.44;5016127;28;45544;-55
2022/06/17 10:21:45;;;;;;;;;7.20;7.20;;;;;-143.57;100.00;65101.44;5015441;28;45413;-48
2022/06/17 10:24:55;;;;;;;;;5.40;5.40;;;;;-143.57;100.00;65101.44;5015774;28;45479;-54
2022/06/17 10:27:48;;;;;;;;;7.20;6.20;;;;;-143.57;100.00;65101.44;4995787;28;45399;-47
2022/06/17 10:30:21;;;;;;;;;6.20;6.20;;;;;-143.57;100.00;65101.44;5015548;28;46277;-50
2022/06/17 10:32:49;;;;;;;;;10.00;10.00;;;;;-143.57;100.00;65101.44;5015305;28;45794;-55
2022/06/17 10:35:38;;;;;;;;;6.40;6.20;;;;;-143.57;100.00;65101.44;5054430;27;45424;-53
2022/06/17 10:38:07;;;;;;;;;5.60;5.20;;;;;-143.57;100.00;65101.44;5079863;27;45429;-60
2022/06/17 10:40:37;;;;;;;;;10.20;7.20;;;;;-143.57;100.00;65101.44;5098094;27;46069;-60
2022/06/17 10:43:10;;;;;;;;;7.60;6.40;;;;;-143.57;100.00;65101.44;5079743;27;45292;-59
2022/06/17 10:45:36;;;;;;;;;5.00;5.00;;;;;-143.57;100.00;65101.44;5098208;27;45374;-58
2022/06/17 10:48:16;;;;;;;;;6.75;6.75;;;;;-143.57;100.00;65101.44;5080263;27;46017;-52
2022/06/17 10:50:41;;;;;;;;;6.80;5.80;;;;;-143.57;100.00;65101.44;5097725;27;45498;-56
2022/06/17 10:53:24;;;;;;;;;7.25;5.50;;;;;-143.57;100.00;65101.44;5098123;27;45361;-53
2022/06/17 10:55:53;;;;;;;;;7.60;7.60;;;;;-143.57;100.00;65101.44;5096515;27;45485;-54
2022/06/17 10:58:27;;;;;;;;;9.40;8.40;;;;;-143.57;100.00;65101.44;5095541;27;45559;-59
2022/06/17 11:01:03;;;;;;;;;8.00;6.60;;;;;-143.57;100.00;65101.44;5093339;27;45422;-58
2022/06/17 11:03:37;;;;;;;;;6.00;6.00;;;;;-143.57;100.00;65101.44;5113332;27;45521;-58
2022/06/17 11:06:08;;;;;;;;;8.60;7.40;;;;;-143.57;100.00;65101.44;5111123;27;45291;-45
2022/06/17 11:08:41;;;;;;;;;12.40;8.80;;;;;-143.57;100.00;65101.44;5096460;27;45443;-58
2022/06/17 11:13:55;;;;;;;;;6.80;6.80;;;;;-143.57;100.00;65101.44;5095047;27;45473;-50
2022/06/17 11:16:24;;;;;;;;;6.50;6.50;;;;;-143.57;100.00;65101.44;5094611;27;45586;-52
2022/06/17 11:19:05;;;;;;;;;6.00;4.20;;;;;-143.57;100.00;65101.44;5094819;27;45597;-52
2022/06/17 11:21:40;;;;;;;;;5.60;5.60;;;;;-143.57;100.00;65101.44;5094472;27;45367;-50
2022/06/17 11:24:07;;;;;;;;;7.40;7.40;;;;;-143.57;100.00;65101.44;5093498;27;45436;-52
2022/06/17 11:26:34;;;;;;;;;7.00;7.00;;;;;-143.57;100.00;65101.44;5094210;27;45530;-47
2022/06/17 11:29:21;;;;;;;;;4.60;4.60;;;;;-143.57;100.00;65101.44;5095045;27;45483;-58
2022/06/17 11:31:49;;;;;;;;;4.40;4.40;;;;;-143.57;100.00;65101.44;5094097;27;46085;-48
2022/06/17 11:34:17;;;;;;;;;10.60;5.20;;;;;-143.57;100.00;65101.44;5094465;27;45539;-51